sensor_id;sensor_type;location;lat;lon;timestamp;pressure;altitude;pressure_sealevel;temperature;humidity
54900;BME280;40801;41.924;25.562;2023-04-19T00:01:48;99060.53;;;12.33;87.58
54900;BME280;40801;41.924;25.562;2023-04-19T00:04:13;99058.28;;;12.44;86.90
54900;BME280;40801;41.924;25.562;2023-04-19T00:06:39;99060.94;;;12.53;86.59
54900;BME280;40801;41.924;25.562;2023-04-19T00:09:06;99065.44;;;12.49;86.87
54900;BME280;40801;41.924;25.562;2023-04-19T00:11:32;99067.00;;;12.50;87.37
54900;BME280;40801;41.924;25.562;2023-04-19T00:13:57;99058.91;;;12.41;87.44
54900;BME280;40801;41.924;25.562;2023-04-19T00:16:23;99054.34;;;12.33;88.20
54900;BME280;40801;41.924;25.562;2023-04-19T00:18:48;99056.06;;;12.37;87.14
54900;BME280;40801;41.924;25.562;2023-04-19T00:21:14;99055.00;;;12.30;87.87
54900;BME280;40801;41.924;25.562;2023-04-19T00:23:39;99055.94;;;12.34;86.98
54900;BME280;40801;41.924;25.562;2023-04-19T00:26:05;99046.38;;;12.36;86.26
54900;BME280;40801;41.924;25.562;2023-04-19T00:28:30;99041.16;;;12.31;86.66
54900;BME280;40801;41.924;25.562;2023-04-19T00:30:56;99038.94;;;12.25;88.16
54900;BME280;40801;41.924;25.562;2023-04-19T00:33:21;99043.84;;;12.31;87.28
54900;BME280;40801;41.924;25.562;2023-04-19T00:35:47;99038.31;;;12.28;87.66
54900;BME280;40801;41.924;25.562;2023-04-19T00:38:12;99032.25;;;12.31;86.61
54900;BME280;40801;41.924;25.562;2023-04-19T00:40:38;99036.63;;;12.06;88.62
54900;BME280;40801;41.924;25.562;2023-04-19T00:43:04;99036.75;;;12.18;87.43
54900;BME280;40801;41.924;25.562;2023-04-19T00:45:31;99030.25;;;12.10;87.58
54900;BME280;40801;41.924;25.562;2023-04-19T00:47:57;99034.06;;;12.09;88.04
54900;BME280;40801;41.924;25.562;2023-04-19T00:50:22;99031.81;;;12.12;87.57
54900;BME280;40801;41.924;25.562;2023-04-19T00:52:47;99032.66;;;12.03;88.24
54900;BME280;40801;41.924;25.562;2023-04-19T00:55:13;99034.41;;;11.99;88.29
54900;BME280;40801;41.924;25.562;2023-04-19T00:57:39;99032.53;;;11.91;88.58
54900;BME280;40801;41.924;25.562;2023-04-19T01:00:05;99030.59;;;12.00;86.93
54900;BME280;40801;41.924;25.562;2023-04-19T01:02:33;99030.00;;;11.95;87.49
54900;BME280;40801;41.924;25.562;2023-04-19T01:04:58;99030.00;;;11.86;88.18
54900;BME280;40801;41.924;25.562;2023-04-19T01:07:24;99024.44;;;11.74;88.38
54900;BME280;40801;41.924;25.562;2023-04-19T01:09:49;99016.50;;;11.69;88.71
54900;BME280;40801;41.924;25.562;2023-04-19T01:12:15;99021.59;;;11.70;87.92
54900;BME280;40801;41.924;25.562;2023-04-19T01:14:40;99021.75;;;11.65;87.77
54900;BME280;40801;41.924;25.562;2023-04-19T01:17:06;99019.88;;;11.57;88.58
54900;BME280;40801;41.924;25.562;2023-04-19T01:19:32;99012.72;;;11.61;88.06
54900;BME280;40801;41.924;25.562;2023-04-19T01:21:59;99017.47;;;11.56;88.30
54900;BME280;40801;41.924;25.562;2023-04-19T01:24:24;99011.13;;;11.52;88.76
54900;BME280;40801;41.924;25.562;2023-04-19T01:26:50;99014.94;;;11.51;89.32
54900;BME280;40801;41.924;25.562;2023-04-19T01:29:15;99012.38;;;11.54;89.78
54900;BME280;40801;41.924;25.562;2023-04-19T01:31:42;99011.75;;;11.66;88.85
54900;BME280;40801;41.924;25.562;2023-04-19T01:34:13;99009.38;;;11.64;89.21
54900;BME280;40801;41.924;25.562;2023-04-19T01:36:38;99012.97;;;11.77;88.07
54900;BME280;40801;41.924;25.562;2023-04-19T01:39:03;99006.97;;;11.80;88.59
54900;BME280;40801;41.924;25.562;2023-04-19T01:41:29;99000.13;;;11.83;87.81
54900;BME280;40801;41.924;25.562;2023-04-19T01:43:55;99010.13;;;11.73;88.81
54900;BME280;40801;41.924;25.562;2023-04-19T01:46:20;99003.47;;;11.79;88.70
54900;BME280;40801;41.924;25.562;2023-04-19T01:48:45;99005.06;;;11.81;88.69
54900;BME280;40801;41.924;25.562;2023-04-19T01:51:11;98995.84;;;11.82;88.68
54900;BME280;40801;41.924;25.562;2023-04-19T01:53:36;99006.50;;;11.69;89.20
54900;BME280;40801;41.924;25.562;2023-04-19T01:56:02;99000.59;;;11.76;89.88
54900;BME280;40801;41.924;25.562;2023-04-19T01:58:27;98990.44;;;11.82;89.10
54900;BME280;40801;41.924;25.562;2023-04-19T02:00:52;98995.84;;;11.73;89.91
54900;BME280;40801;41.924;25.562;2023-04-19T02:03:18;98999.50;;;11.86;89.28
54900;BME280;40801;41.924;25.562;2023-04-19T02:05:43;99000.44;;;11.81;89.90
54900;BME280;40801;41.924;25.562;2023-04-19T02:08:09;98998.06;;;11.71;90.52
54900;BME280;40801;41.924;25.562;2023-04-19T02:10:34;98995.69;;;11.78;90.15
54900;BME280;40801;41.924;25.562;2023-04-19T02:13:00;98999.66;;;11.81;89.27
54900;BME280;40801;41.924;25.562;2023-04-19T02:15:25;98995.19;;;11.76;89.94
54900;BME280;40801;41.924;25.562;2023-04-19T02:17:50;98997.75;;;11.90;89.15
54900;BME280;40801;41.924;25.562;2023-04-19T02:20:16;98998.69;;;11.94;88.95
54900;BME280;40801;41.924;25.562;2023-04-19T02:22:41;98999.75;;;12.01;87.89
54900;BME280;40801;41.924;25.562;2023-04-19T02:25:08;98996.31;;;11.92;88.67
54900;BME280;40801;41.924;25.562;2023-04-19T02:27:33;98998.97;;;12.01;87.43
54900;BME280;40801;41.924;25.562;2023-04-19T02:29:58;98994.84;;;11.95;87.96
54900;BME280;40801;41.924;25.562;2023-04-19T02:32:24;98986.28;;;11.84;88.84
54900;BME280;40801;41.924;25.562;2023-04-19T02:34:49;98992.00;;;11.83;88.62
54900;BME280;40801;41.924;25.562;2023-04-19T02:37:15;98982.31;;;11.82;89.15
54900;BME280;40801;41.924;25.562;2023-04-19T02:39:41;98982.78;;;11.92;88.14
54900;BME280;40801;41.924;25.562;2023-04-19T02:42:06;98987.06;;;11.85;88.70
54900;BME280;40801;41.924;25.562;2023-04-19T02:44:32;98988.53;;;11.82;88.58
54900;BME280;40801;41.924;25.562;2023-04-19T02:46:57;98982.00;;;11.83;87.90
54900;BME280;40801;41.924;25.562;2023-04-19T02:49:22;98978.66;;;11.77;88.13
54900;BME280;40801;41.924;25.562;2023-04-19T02:51:49;98986.28;;;11.75;88.54
54900;BME280;40801;41.924;25.562;2023-04-19T02:54:15;98985.81;;;11.73;88.53
54900;BME280;40801;41.924;25.562;2023-04-19T02:56:40;98981.72;;;11.67;89.31
54900;BME280;40801;41.924;25.562;2023-04-19T02:59:06;98991.06;;;11.78;88.67
54900;BME280;40801;41.924;25.562;2023-04-19T03:01:31;98995.69;;;11.78;88.79
54900;BME280;40801;41.924;25.562;2023-04-19T03:03:57;98989.31;;;11.74;88.83
54900;BME280;40801;41.924;25.562;2023-04-19T03:06:23;98991.56;;;11.55;90.30
54900;BME280;40801;41.924;25.562;2023-04-19T03:08:48;98993.16;;;11.56;90.10
54900;BME280;40801;41.924;25.562;2023-04-19T03:11:17;98997.16;;;11.41;90.83
54900;BME280;40801;41.924;25.562;2023-04-19T03:13:42;98979.03;;;11.50;90.02
54900;BME280;40801;41.924;25.562;2023-04-19T03:16:08;98985.84;;;11.56;89.33
54900;BME280;40801;41.924;25.562;2023-04-19T03:18:33;98988.53;;;11.56;89.59
54900;BME280;40801;41.924;25.562;2023-04-19T03:20:59;98976.34;;;11.59;89.44
54900;BME280;40801;41.924;25.562;2023-04-19T03:23:25;98988.22;;;11.66;88.46
54900;BME280;40801;41.924;25.562;2023-04-19T03:25:51;98983.94;;;11.65;88.86
54900;BME280;40801;41.924;25.562;2023-04-19T03:28:16;98978.53;;;11.65;88.90
54900;BME280;40801;41.924;25.562;2023-04-19T03:30:42;98983.63;;;11.67;88.77
54900;BME280;40801;41.924;25.562;2023-04-19T03:33:07;98977.28;;;11.63;89.24
54900;BME280;40801;41.924;25.562;2023-04-19T03:35:32;98973.59;;;11.67;89.25
54900;BME280;40801;41.924;25.562;2023-04-19T03:37:58;98976.31;;;11.67;88.74
54900;BME280;40801;41.924;25.562;2023-04-19T03:40:23;98975.47;;;11.75;88.03
54900;BME280;40801;41.924;25.562;2023-04-19T03:42:49;98985.97;;;11.77;87.91
54900;BME280;40801;41.924;25.562;2023-04-19T03:45:14;98982.19;;;11.78;88.13
54900;BME280;40801;41.924;25.562;2023-04-19T03:47:40;98978.50;;;11.83;87.90
54900;BME280;40801;41.924;25.562;2023-04-19T03:50:05;98981.06;;;11.88;88.23
54900;BME280;40801;41.924;25.562;2023-04-19T03:52:31;98979.63;;;11.90;88.13
54900;BME280;40801;41.924;25.562;2023-04-19T03:54:57;98984.00;;;12.03;87.12
54900;BME280;40801;41.924;25.562;2023-04-19T03:57:22;98983.72;;;11.96;87.25
54900;BME280;40801;41.924;25.562;2023-04-19T03:59:47;98995.34;;;11.88;87.83
54900;BME280;40801;41.924;25.562;2023-04-19T04:02:13;98990.28;;;11.87;88.37
54900;BME280;40801;41.924;25.562;2023-04-19T04:04:38;98988.28;;;12.04;86.85
54900;BME280;40801;41.924;25.562;2023-04-19T04:07:04;98997.28;;;11.88;88.28
54900;BME280;40801;41.924;25.562;2023-04-19T04:09:29;98998.22;;;11.92;88.34
54900;BME280;40801;41.924;25.562;2023-04-19T04:11:55;98995.50;;;11.92;88.87
54900;BME280;40801;41.924;25.562;2023-04-19T04:14:21;98991.31;;;12.03;87.65
54900;BME280;40801;41.924;25.562;2023-04-19T04:16:46;98999.09;;;12.04;87.92
54900;BME280;40801;41.924;25.562;2023-04-19T04:19:11;99008.97;;;12.00;88.21
54900;BME280;40801;41.924;25.562;2023-04-19T04:21:37;99004.72;;;11.91;88.65
54900;BME280;40801;41.924;25.562;2023-04-19T04:24:02;99002.59;;;12.05;88.30
54900;BME280;40801;41.924;25.562;2023-04-19T04:26:28;99002.28;;;12.06;87.69
54900;BME280;40801;41.924;25.562;2023-04-19T04:28:58;99011.63;;;12.18;87.33
54900;BME280;40801;41.924;25.562;2023-04-19T04:31:24;99003.34;;;12.23;86.63
54900;BME280;40801;41.924;25.562;2023-04-19T04:33:50;98993.59;;;12.30;86.48
54900;BME280;40801;41.924;25.562;2023-04-19T04:36:17;99009.03;;;12.30;86.31
54900;BME280;40801;41.924;25.562;2023-04-19T04:38:43;99008.56;;;12.28;86.44
54900;BME280;40801;41.924;25.562;2023-04-19T04:41:10;99004.47;;;12.22;86.80
54900;BME280;40801;41.924;25.562;2023-04-19T04:43:36;99015.03;;;12.35;86.30
54900;BME280;40801;41.924;25.562;2023-04-19T04:46:02;99017.59;;;12.32;86.41
54900;BME280;40801;41.924;25.562;2023-04-19T04:48:28;99016.34;;;12.29;86.79
54900;BME280;40801;41.924;25.562;2023-04-19T04:50:55;99015.22;;;12.30;86.96
54900;BME280;40801;41.924;25.562;2023-04-19T04:53:20;99016.16;;;12.34;87.28
54900;BME280;40801;41.924;25.562;2023-04-19T04:55:46;99010.69;;;12.43;86.66
54900;BME280;40801;41.924;25.562;2023-04-19T04:58:11;99001.19;;;12.46;86.24
54900;BME280;40801;41.924;25.562;2023-04-19T05:00:37;99003.44;;;12.35;86.37
54900;BME280;40801;41.924;25.562;2023-04-19T05:03:02;99001.00;;;12.42;85.62
54900;BME280;40801;41.924;25.562;2023-04-19T05:05:28;98993.84;;;12.46;85.45
54900;BME280;40801;41.924;25.562;2023-04-19T05:07:53;98995.09;;;12.49;85.21
54900;BME280;40801;41.924;25.562;2023-04-19T05:10:19;98996.41;;;12.43;85.55
54900;BME280;40801;41.924;25.562;2023-04-19T05:12:45;98994.34;;;12.39;86.33
54900;BME280;40801;41.924;25.562;2023-04-19T05:15:10;98997.38;;;12.38;86.24
54900;BME280;40801;41.924;25.562;2023-04-19T05:17:38;98998.13;;;12.47;86.30
54900;BME280;40801;41.924;25.562;2023-04-19T05:20:04;98996.97;;;12.57;85.51
54900;BME280;40801;41.924;25.562;2023-04-19T05:22:30;99003.44;;;12.64;85.06
54900;BME280;40801;41.924;25.562;2023-04-19T05:24:55;99007.97;;;12.52;85.56
54900;BME280;40801;41.924;25.562;2023-04-19T05:27:21;99005.31;;;12.73;84.53
54900;BME280;40801;41.924;25.562;2023-04-19T05:29:46;99008.22;;;12.88;83.78
54900;BME280;40801;41.924;25.562;2023-04-19T05:32:12;99014.09;;;12.90;83.84
54900;BME280;40801;41.924;25.562;2023-04-19T05:34:37;99012.25;;;12.82;83.92
54900;BME280;40801;41.924;25.562;2023-04-19T05:37:04;99012.97;;;12.91;83.75
54900;BME280;40801;41.924;25.562;2023-04-19T05:39:30;99008.25;;;13.09;83.18
54900;BME280;40801;41.924;25.562;2023-04-19T05:41:55;99002.88;;;13.00;83.72
54900;BME280;40801;41.924;25.562;2023-04-19T05:44:20;99003.09;;;13.16;82.90
54900;BME280;40801;41.924;25.562;2023-04-19T05:46:46;99002.63;;;13.14;82.35
54900;BME280;40801;41.924;25.562;2023-04-19T05:49:11;99003.75;;;13.13;82.10
54900;BME280;40801;41.924;25.562;2023-04-19T05:51:36;99014.78;;;13.08;82.14
54900;BME280;40801;41.924;25.562;2023-04-19T05:54:02;99017.72;;;12.94;82.71
54900;BME280;40801;41.924;25.562;2023-04-19T05:56:28;99015.34;;;12.93;82.97
54900;BME280;40801;41.924;25.562;2023-04-19T05:58:54;99012.53;;;12.89;82.54
54900;BME280;40801;41.924;25.562;2023-04-19T06:01:25;99013.88;;;13.04;82.05
54900;BME280;40801;41.924;25.562;2023-04-19T06:03:50;99023.94;;;12.95;82.71
54900;BME280;40801;41.924;25.562;2023-04-19T06:06:18;99012.53;;;12.89;82.43
54900;BME280;40801;41.924;25.562;2023-04-19T06:08:43;99016.59;;;12.95;82.52
54900;BME280;40801;41.924;25.562;2023-04-19T06:11:09;99015.44;;;12.84;83.21
54900;BME280;40801;41.924;25.562;2023-04-19T06:13:35;99019.31;;;12.95;82.54
54900;BME280;40801;41.924;25.562;2023-04-19T06:16:01;99014.75;;;12.87;82.74
54900;BME280;40801;41.924;25.562;2023-04-19T06:18:27;99021.38;;;12.98;82.71
54900;BME280;40801;41.924;25.562;2023-04-19T06:20:52;99018.25;;;13.17;82.01
54900;BME280;40801;41.924;25.562;2023-04-19T06:23:18;99014.94;;;13.32;81.70
54900;BME280;40801;41.924;25.562;2023-04-19T06:25:43;99013.53;;;13.47;80.90
54900;BME280;40801;41.924;25.562;2023-04-19T06:28:09;99015.06;;;13.36;80.83
54900;BME280;40801;41.924;25.562;2023-04-19T06:30:35;99013.19;;;13.49;80.25
54900;BME280;40801;41.924;25.562;2023-04-19T06:33:00;99015.81;;;13.57;79.35
54900;BME280;40801;41.924;25.562;2023-04-19T06:35:25;99014.13;;;13.53;80.08
54900;BME280;40801;41.924;25.562;2023-04-19T06:37:51;99023.47;;;13.76;79.57
54900;BME280;40801;41.924;25.562;2023-04-19T06:40:16;99016.44;;;13.75;79.05
54900;BME280;40801;41.924;25.562;2023-04-19T06:42:42;99026.06;;;13.85;78.22
54900;BME280;40801;41.924;25.562;2023-04-19T06:45:08;99025.22;;;13.60;79.88
54900;BME280;40801;41.924;25.562;2023-04-19T06:47:34;99017.53;;;13.95;78.46
54900;BME280;40801;41.924;25.562;2023-04-19T06:49:59;99023.75;;;13.95;78.49
54900;BME280;40801;41.924;25.562;2023-04-19T06:52:25;99026.03;;;13.73;79.13
54900;BME280;40801;41.924;25.562;2023-04-19T06:54:51;99024.25;;;13.77;78.78
54900;BME280;40801;41.924;25.562;2023-04-19T06:57:16;99027.31;;;13.87;78.77
54900;BME280;40801;41.924;25.562;2023-04-19T06:59:42;99037.19;;;13.92;78.11
54900;BME280;40801;41.924;25.562;2023-04-19T07:02:08;99041.34;;;13.89;78.52
54900;BME280;40801;41.924;25.562;2023-04-19T07:04:35;99042.53;;;13.68;78.49
54900;BME280;40801;41.924;25.562;2023-04-19T07:07:01;99052.03;;;13.74;78.15
54900;BME280;40801;41.924;25.562;2023-04-19T07:09:27;99048.44;;;13.82;77.59
54900;BME280;40801;41.924;25.562;2023-04-19T07:11:52;99047.81;;;13.97;77.09
54900;BME280;40801;41.924;25.562;2023-04-19T07:14:18;99045.88;;;13.98;77.26
54900;BME280;40801;41.924;25.562;2023-04-19T07:16:44;99055.69;;;13.90;77.11
54900;BME280;40801;41.924;25.562;2023-04-19T07:19:11;99059.66;;;13.92;77.20
54900;BME280;40801;41.924;25.562;2023-04-19T07:21:36;99049.16;;;13.91;76.90
54900;BME280;40801;41.924;25.562;2023-04-19T07:24:03;99059.00;;;13.95;76.70
54900;BME280;40801;41.924;25.562;2023-04-19T07:26:29;99052.94;;;13.78;76.79
54900;BME280;40801;41.924;25.562;2023-04-19T07:28:55;99056.69;;;13.85;76.55
54900;BME280;40801;41.924;25.562;2023-04-19T07:31:21;99058.44;;;14.02;76.10
54900;BME280;40801;41.924;25.562;2023-04-19T07:33:49;99058.44;;;14.02;76.11
54900;BME280;40801;41.924;25.562;2023-04-19T07:36:15;99069.75;;;14.16;75.91
54900;BME280;40801;41.924;25.562;2023-04-19T07:38:40;99070.09;;;14.15;75.25
54900;BME280;40801;41.924;25.562;2023-04-19T07:41:05;99072.94;;;14.18;74.73
54900;BME280;40801;41.924;25.562;2023-04-19T07:43:31;99071.38;;;14.17;74.66
54900;BME280;40801;41.924;25.562;2023-04-19T07:45:57;99072.47;;;14.16;74.30
54900;BME280;40801;41.924;25.562;2023-04-19T07:48:22;99072.69;;;14.11;74.83
54900;BME280;40801;41.924;25.562;2023-04-19T07:50:48;99084.19;;;14.08;74.68
54900;BME280;40801;41.924;25.562;2023-04-19T07:53:13;99084.25;;;14.20;74.42
54900;BME280;40801;41.924;25.562;2023-04-19T07:55:39;99085.16;;;14.24;75.19
54900;BME280;40801;41.924;25.562;2023-04-19T07:58:04;99073.63;;;14.27;75.20
54900;BME280;40801;41.924;25.562;2023-04-19T08:00:30;99080.53;;;14.37;75.41
54900;BME280;40801;41.924;25.562;2023-04-19T08:02:57;99079.66;;;14.45;74.66
54900;BME280;40801;41.924;25.562;2023-04-19T08:05:22;99084.59;;;14.31;74.81
54900;BME280;40801;41.924;25.562;2023-04-19T08:07:50;99088.22;;;14.35;74.28
54900;BME280;40801;41.924;25.562;2023-04-19T08:10:17;99088.28;;;14.47;74.31
54900;BME280;40801;41.924;25.562;2023-04-19T08:12:42;99083.47;;;14.32;74.52
54900;BME280;40801;41.924;25.562;2023-04-19T08:15:08;99087.34;;;14.43;73.51
54900;BME280;40801;41.924;25.562;2023-04-19T08:17:33;99095.00;;;14.41;73.29
54900;BME280;40801;41.924;25.562;2023-04-19T08:19:59;99094.34;;;14.44;73.76
54900;BME280;40801;41.924;25.562;2023-04-19T08:22:25;99089.28;;;14.43;74.04
54900;BME280;40801;41.924;25.562;2023-04-19T08:24:51;99083.66;;;14.48;73.38
54900;BME280;40801;41.924;25.562;2023-04-19T08:27:17;99089.19;;;14.51;74.12
54900;BME280;40801;41.924;25.562;2023-04-19T08:29:43;99085.25;;;14.49;73.89
54900;BME280;40801;41.924;25.562;2023-04-19T08:32:10;99087.63;;;14.50;73.89
54900;BME280;40801;41.924;25.562;2023-04-19T08:34:37;99094.22;;;14.41;73.39
54900;BME280;40801;41.924;25.562;2023-04-19T08:37:02;99091.34;;;14.46;73.59
54900;BME280;40801;41.924;25.562;2023-04-19T08:39:31;99093.81;;;14.63;73.79
54900;BME280;40801;41.924;25.562;2023-04-19T08:42:03;99089.53;;;14.74;74.09
54900;BME280;40801;41.924;25.562;2023-04-19T08:44:30;99084.09;;;14.62;73.39
54900;BME280;40801;41.924;25.562;2023-04-19T08:46:58;99087.81;;;14.45;72.85
54900;BME280;40801;41.924;25.562;2023-04-19T08:49:23;99090.31;;;14.50;72.87
54900;BME280;40801;41.924;25.562;2023-04-19T08:51:50;99083.41;;;14.65;72.32
54900;BME280;40801;41.924;25.562;2023-04-19T08:54:17;99091.22;;;14.54;72.96
54900;BME280;40801;41.924;25.562;2023-04-19T08:56:44;99090.44;;;14.66;73.14
54900;BME280;40801;41.924;25.562;2023-04-19T08:59:09;99087.28;;;14.88;72.77
54900;BME280;40801;41.924;25.562;2023-04-19T09:01:35;99083.88;;;15.04;72.91
54900;BME280;40801;41.924;25.562;2023-04-19T09:04:04;99078.19;;;15.21;72.55
54900;BME280;40801;41.924;25.562;2023-04-19T09:06:37;99087.91;;;15.22;72.03
54900;BME280;40801;41.924;25.562;2023-04-19T09:11:43;99087.66;;;15.39;70.99
54900;BME280;40801;41.924;25.562;2023-04-19T09:14:10;99091.72;;;15.45;71.21
54900;BME280;40801;41.924;25.562;2023-04-19T09:16:36;99093.41;;;15.50;71.90
54900;BME280;40801;41.924;25.562;2023-04-19T09:19:02;99098.06;;;15.62;72.07
54900;BME280;40801;41.924;25.562;2023-04-19T09:21:29;99091.00;;;15.61;71.99
54900;BME280;40801;41.924;25.562;2023-04-19T09:23:55;99089.34;;;15.44;72.33
54900;BME280;40801;41.924;25.562;2023-04-19T09:26:21;99096.56;;;15.64;71.17
54900;BME280;40801;41.924;25.562;2023-04-19T09:31:38;99090.47;;;15.43;71.45
54900;BME280;40801;41.924;25.562;2023-04-19T09:34:17;99092.75;;;15.41;72.76
54900;BME280;40801;41.924;25.562;2023-04-19T09:36:43;99087.97;;;15.50;72.12
54900;BME280;40801;41.924;25.562;2023-04-19T09:39:09;99090.78;;;15.66;71.98
54900;BME280;40801;41.924;25.562;2023-04-19T09:41:52;99083.53;;;15.70;71.81
54900;BME280;40801;41.924;25.562;2023-04-19T09:44:18;99083.06;;;15.68;71.40
54900;BME280;40801;41.924;25.562;2023-04-19T09:46:44;99093.28;;;15.59;71.51
54900;BME280;40801;41.924;25.562;2023-04-19T09:51:45;99086.34;;;15.73;72.23
54900;BME280;40801;41.924;25.562;2023-04-19T09:54:12;99085.63;;;15.76;70.80
54900;BME280;40801;41.924;25.562;2023-04-19T09:56:39;99083.31;;;15.63;70.43
54900;BME280;40801;41.924;25.562;2023-04-19T09:59:06;99075.50;;;15.89;70.43
54900;BME280;40801;41.924;25.562;2023-04-19T10:01:49;99082.41;;;15.87;68.95
54900;BME280;40801;41.924;25.562;2023-04-19T10:04:17;99078.16;;;16.01;68.91
54900;BME280;40801;41.924;25.562;2023-04-19T10:06:55;99072.38;;;16.03;68.16
54900;BME280;40801;41.924;25.562;2023-04-19T10:09:21;99074.66;;;16.17;68.65
54900;BME280;40801;41.924;25.562;2023-04-19T10:11:48;99074.84;;;16.08;68.53
54900;BME280;40801;41.924;25.562;2023-04-19T10:14:15;99075.72;;;16.12;68.12
54900;BME280;40801;41.924;25.562;2023-04-19T10:16:40;99069.22;;;16.17;67.37
54900;BME280;40801;41.924;25.562;2023-04-19T10:19:11;99063.69;;;16.13;67.14
54900;BME280;40801;41.924;25.562;2023-04-19T10:21:37;99073.38;;;16.26;66.52
54900;BME280;40801;41.924;25.562;2023-04-19T10:24:04;99067.31;;;16.33;65.71
54900;BME280;40801;41.924;25.562;2023-04-19T10:32:22;99066.66;;;16.83;64.03
54900;BME280;40801;41.924;25.562;2023-04-19T10:34:50;99066.69;;;17.02;63.63
54900;BME280;40801;41.924;25.562;2023-04-19T10:37:29;99066.09;;;17.28;62.71
54900;BME280;40801;41.924;25.562;2023-04-19T10:39:55;99061.31;;;17.41;62.24
54900;BME280;40801;41.924;25.562;2023-04-19T10:42:20;99066.84;;;17.64;61.22
54900;BME280;40801;41.924;25.562;2023-04-19T10:47:50;99047.06;;;18.32;59.98
54900;BME280;40801;41.924;25.562;2023-04-19T10:50:16;99051.88;;;18.39;57.28
54900;BME280;40801;41.924;25.562;2023-04-19T10:52:42;99052.03;;;18.72;56.45
54900;BME280;40801;41.924;25.562;2023-04-19T10:55:07;99049.66;;;19.24;56.77
54900;BME280;40801;41.924;25.562;2023-04-19T10:58:02;99034.78;;;19.51;51.98
54900;BME280;40801;41.924;25.562;2023-04-19T11:00:30;99045.34;;;19.83;55.01
54900;BME280;40801;41.924;25.562;2023-04-19T11:06:17;99035.72;;;20.88;51.28
54900;BME280;40801;41.924;25.562;2023-04-19T11:08:44;99039.50;;;21.27;50.13
54900;BME280;40801;41.924;25.562;2023-04-19T11:11:12;99032.75;;;22.51;49.50
54900;BME280;40801;41.924;25.562;2023-04-19T11:13:41;99029.53;;;23.24;45.13
54900;BME280;40801;41.924;25.562;2023-04-19T11:16:08;99022.94;;;23.94;44.02
54900;BME280;40801;41.924;25.562;2023-04-19T11:18:33;99014.50;;;24.19;42.41
54900;BME280;40801;41.924;25.562;2023-04-19T11:20:58;99020.22;;;25.28;42.36
54900;BME280;40801;41.924;25.562;2023-04-19T11:23:25;99026.34;;;25.47;40.73
54900;BME280;40801;41.924;25.562;2023-04-19T11:25:51;99024.09;;;25.96;39.47
54900;BME280;40801;41.924;25.562;2023-04-19T11:28:17;99020.13;;;26.74;39.56
54900;BME280;40801;41.924;25.562;2023-04-19T11:30:43;99017.88;;;26.89;37.06
54900;BME280;40801;41.924;25.562;2023-04-19T11:33:11;99015.84;;;26.93;37.27
54900;BME280;40801;41.924;25.562;2023-04-19T11:35:37;99011.47;;;27.55;36.89
54900;BME280;40801;41.924;25.562;2023-04-19T11:38:02;99007.38;;;27.63;36.57
54900;BME280;40801;41.924;25.562;2023-04-19T11:40:29;99015.94;;;26.42;36.27
54900;BME280;40801;41.924;25.562;2023-04-19T11:42:59;99019.28;;;25.76;36.43
54900;BME280;40801;41.924;25.562;2023-04-19T11:45:33;99009.88;;;24.57;37.79
54900;BME280;40801;41.924;25.562;2023-04-19T11:48:01;99012.53;;;24.20;39.13
54900;BME280;40801;41.924;25.562;2023-04-19T11:50:42;99013.75;;;23.35;41.41
54900;BME280;40801;41.924;25.562;2023-04-19T11:53:16;99008.41;;;22.74;42.92
54900;BME280;40801;41.924;25.562;2023-04-19T11:55:46;99018.25;;;22.36;43.22
54900;BME280;40801;41.924;25.562;2023-04-19T11:58:37;99018.53;;;21.85;43.71
54900;BME280;40801;41.924;25.562;2023-04-19T12:01:22;99014.94;;;21.59;44.58
54900;BME280;40801;41.924;25.562;2023-04-19T12:03:52;99020.00;;;21.47;44.98
54900;BME280;40801;41.924;25.562;2023-04-19T12:06:26;99015.03;;;20.97;46.05
54900;BME280;40801;41.924;25.562;2023-04-19T12:08:53;99014.28;;;21.04;46.08
54900;BME280;40801;41.924;25.562;2023-04-19T12:11:21;99003.69;;;21.06;46.34
54900;BME280;40801;41.924;25.562;2023-04-19T12:14:12;99001.19;;;20.76;48.19
54900;BME280;40801;41.924;25.562;2023-04-19T12:16:38;98996.97;;;20.93;46.66
54900;BME280;40801;41.924;25.562;2023-04-19T12:19:15;99000.19;;;21.06;47.52
54900;BME280;40801;41.924;25.562;2023-04-19T12:21:47;98995.06;;;21.04;47.36
54900;BME280;40801;41.924;25.562;2023-04-19T12:24:15;98998.53;;;20.87;47.32
54900;BME280;40801;41.924;25.562;2023-04-19T12:26:54;98987.03;;;20.67;44.36
54900;BME280;40801;41.924;25.562;2023-04-19T12:29:20;98989.78;;;20.67;46.33
54900;BME280;40801;41.924;25.562;2023-04-19T12:31:46;98987.31;;;20.07;47.08
54900;BME280;40801;41.924;25.562;2023-04-19T12:34:11;98986.38;;;19.92;47.46
54900;BME280;40801;41.924;25.562;2023-04-19T12:36:37;98985.91;;;19.83;47.73
54900;BME280;40801;41.924;25.562;2023-04-19T12:39:02;98985.06;;;19.75;48.24
54900;BME280;40801;41.924;25.562;2023-04-19T12:41:27;98981.03;;;19.66;48.44
54900;BME280;40801;41.924;25.562;2023-04-19T12:43:53;98976.50;;;19.80;48.83
54900;BME280;40801;41.924;25.562;2023-04-19T12:46:18;98978.31;;;20.06;48.18
54900;BME280;40801;41.924;25.562;2023-04-19T12:48:44;98976.56;;;20.28;48.09
54900;BME280;40801;41.924;25.562;2023-04-19T12:51:09;98981.03;;;20.51;46.80
54900;BME280;40801;41.924;25.562;2023-04-19T12:53:34;98966.66;;;20.61;45.69
54900;BME280;40801;41.924;25.562;2023-04-19T12:56:00;98973.78;;;20.80;45.68
54900;BME280;40801;41.924;25.562;2023-04-19T12:58:25;98969.56;;;21.98;44.13
54900;BME280;40801;41.924;25.562;2023-04-19T13:00:52;98964.03;;;22.69;41.83
54900;BME280;40801;41.924;25.562;2023-04-19T13:03:17;98951.94;;;23.61;40.60
54900;BME280;40801;41.924;25.562;2023-04-19T13:05:43;98967.53;;;23.85;40.65
54900;BME280;40801;41.924;25.562;2023-04-19T13:08:08;98958.31;;;23.36;38.19